createdAt,value
2022-12-11T00:01:18.018Z,83.31
2022-12-11T00:03:44.714Z,83.22
2022-12-11T00:06:14.978Z,83.32
2022-12-11T00:08:41.970Z,83.27
2022-12-11T00:11:09.332Z,83.61
2022-12-11T00:13:35.993Z,84.03
2022-12-11T00:16:02.893Z,83.57
2022-12-11T00:18:29.707Z,83.78
2022-12-11T00:21:01.440Z,83.61
2022-12-11T00:23:30.213Z,83.76
2022-12-11T00:25:57.168Z,83.82
2022-12-11T00:28:23.953Z,84.21
2022-12-11T00:30:51.919Z,83.73
2022-12-11T00:33:18.673Z,83.82
2022-12-11T00:35:47.921Z,83.65
2022-12-11T00:38:16.148Z,84.12
2022-12-11T00:40:44.424Z,84.22
2022-12-11T00:43:11.640Z,83.95
2022-12-11T00:45:40.730Z,83.90
2022-12-11T00:48:07.646Z,83.94
2022-12-11T00:50:34.651Z,83.80
2022-12-11T00:53:01.641Z,83.68
2022-12-11T00:55:29.234Z,83.69
2022-12-11T00:57:58.740Z,83.88
2022-12-11T01:00:25.608Z,83.68
2022-12-11T01:02:52.622Z,83.88
2022-12-11T01:05:19.369Z,83.93
2022-12-11T01:07:46.095Z,83.81
2022-12-11T01:10:25.933Z,83.91
2022-12-11T01:12:54.333Z,83.71
2022-12-11T01:15:24.867Z,83.65
2022-12-11T01:17:52.088Z,83.85
2022-12-11T01:20:19.724Z,84.10
2022-12-11T01:22:46.680Z,83.57
2022-12-11T01:25:13.643Z,83.66
2022-12-11T01:27:40.714Z,83.97
2022-12-11T01:30:08.999Z,84.25
2022-12-11T01:32:37.358Z,83.73
2022-12-11T01:35:05.414Z,83.87
2022-12-11T01:37:32.199Z,84.28
2022-12-11T01:39:58.951Z,84.09
2022-12-11T01:42:26.291Z,84.27
2022-12-11T01:45:27.470Z,84.09
2022-12-11T01:48:00.129Z,84.17
2022-12-11T01:50:28.041Z,84.05
2022-12-11T01:52:54.769Z,84.05
2022-12-11T01:55:21.927Z,84.12
2022-12-11T01:57:51.075Z,83.84
2022-12-11T02:00:36.621Z,83.83
2022-12-11T02:03:04.935Z,83.98
2022-12-11T02:05:31.586Z,83.81
2022-12-11T02:08:01.476Z,84.37
2022-12-11T02:10:39.196Z,84.07
2022-12-11T02:13:13.077Z,84.13
2022-12-11T02:15:48.455Z,83.88
2022-12-11T02:18:23.770Z,83.94
2022-12-11T02:20:58.194Z,84.00
2022-12-11T02:23:58.793Z,83.98
2022-12-11T02:26:44.509Z,83.98
2022-12-11T02:29:19.844Z,83.91
2022-12-11T02:31:50.971Z,84.47
2022-12-11T02:34:21.007Z,83.91
2022-12-11T02:36:52.616Z,84.04
2022-12-11T02:39:22.498Z,84.42
2022-12-11T02:41:50.965Z,84.32
2022-12-11T02:44:23.322Z,84.25
2022-12-11T02:46:50.954Z,84.58
2022-12-11T02:49:20.237Z,84.59
2022-12-11T02:51:46.943Z,84.03
2022-12-11T02:54:20.640Z,84.00
2022-12-11T02:56:53.784Z,84.67
2022-12-11T02:59:26.466Z,84.49
2022-12-11T03:01:53.170Z,84.65
2022-12-11T03:04:24.934Z,84.21
2022-12-11T03:06:54.960Z,84.45
2022-12-11T03:13:03.483Z,84.38
2022-12-11T03:15:40.697Z,84.69
2022-12-11T03:18:15.735Z,84.83
2022-12-11T03:20:45.620Z,84.69
2022-12-11T03:23:21.187Z,84.56
2022-12-11T03:25:54.039Z,84.26
2022-12-11T03:28:26.209Z,84.73
2022-12-11T03:30:54.517Z,84.45
2022-12-11T03:33:25.577Z,84.74
2022-12-11T03:35:56.102Z,84.39
2022-12-11T03:38:26.368Z,84.75
2022-12-11T03:40:56.297Z,84.72
2022-12-11T03:43:23.367Z,84.54
2022-12-11T03:45:52.512Z,84.25
2022-12-11T03:48:21.909Z,84.67
2022-12-11T03:50:49.778Z,84.61
2022-12-11T03:53:17.526Z,84.38
2022-12-11T03:55:46.318Z,84.07
2022-12-11T03:58:12.978Z,84.32
2022-12-11T04:00:40.034Z,84.69
2022-12-11T04:03:16.496Z,84.41
2022-12-11T04:05:46.641Z,84.71
2022-12-11T04:08:14.300Z,84.35
2022-12-11T04:10:42.154Z,84.11
2022-12-11T04:13:10.172Z,84.07
2022-12-11T04:15:37.635Z,84.10
2022-12-11T04:18:30.930Z,84.42
2022-12-11T04:21:17.296Z,84.15
2022-12-11T04:24:02.572Z,84.15
2022-12-11T04:26:29.265Z,84.36
2022-12-11T04:28:55.869Z,84.38
2022-12-11T04:31:23.657Z,84.61
2022-12-11T04:33:51.742Z,84.53
2022-12-11T04:36:19.762Z,84.36
2022-12-11T04:38:46.379Z,84.35
2022-12-11T04:41:15.468Z,83.95
2022-12-11T04:43:45.095Z,84.04
2022-12-11T04:46:13.603Z,84.41
2022-12-11T04:48:40.892Z,84.00
2022-12-11T04:51:08.495Z,84.29
2022-12-11T04:53:37.361Z,83.91
2022-12-11T04:56:05.671Z,84.17
2022-12-11T04:58:33.125Z,83.95
2022-12-11T05:00:59.841Z,84.13
2022-12-11T05:03:27.004Z,84.05
2022-12-11T05:05:54.095Z,83.91
2022-12-11T05:08:21.586Z,84.32
2022-12-11T05:10:57.584Z,84.45
2022-12-11T05:13:24.304Z,84.17
2022-12-11T05:15:51.192Z,83.86
2022-12-11T05:18:18.131Z,84.59
2022-12-11T05:20:45.095Z,84.50
2022-12-11T05:23:11.918Z,84.29
2022-12-11T05:25:38.509Z,84.32
2022-12-11T05:28:06.569Z,84.18
2022-12-11T05:30:33.306Z,84.41
2022-12-11T05:32:59.941Z,84.32
2022-12-11T05:35:26.565Z,83.95
2022-12-11T05:37:53.138Z,84.03
2022-12-11T05:40:19.781Z,84.04
2022-12-11T05:42:46.394Z,84.13
2022-12-11T05:45:14.432Z,83.90
2022-12-11T05:47:41.113Z,84.12
2022-12-11T05:50:08.617Z,83.88
2022-12-11T05:52:35.492Z,84.24
2022-12-11T05:55:02.307Z,84.21
2022-12-11T05:57:29.254Z,84.39
2022-12-11T05:59:55.935Z,84.42
2022-12-11T06:02:24.376Z,83.98
2022-12-11T06:04:51.094Z,83.81
2022-12-11T06:07:17.799Z,84.16
2022-12-11T06:09:44.653Z,83.86
2022-12-11T06:12:11.349Z,84.18
2022-12-11T06:14:38.368Z,84.11
2022-12-11T06:17:07.538Z,83.93
2022-12-11T06:19:37.157Z,84.31
2022-12-11T06:22:04.178Z,84.38
2022-12-11T06:24:30.904Z,84.11
2022-12-11T06:26:57.548Z,84.06
2022-12-11T06:29:24.396Z,83.99
2022-12-11T06:31:51.212Z,84.31
2022-12-11T06:34:17.970Z,84.05
2022-12-11T06:36:45.918Z,84.11
2022-12-11T06:39:12.540Z,83.97
2022-12-11T06:41:39.204Z,83.78
2022-12-11T06:44:05.844Z,84.12
2022-12-11T06:46:32.571Z,84.10
2022-12-11T06:48:59.275Z,84.15
2022-12-11T06:51:26.050Z,84.43
2022-12-11T06:53:55.834Z,84.35
2022-12-11T06:56:24.529Z,84.19
2022-12-11T06:58:52.051Z,84.22
2022-12-11T07:01:20.634Z,84.17
2022-12-11T07:03:48.166Z,83.88
2022-12-11T07:06:15.536Z,84.08
2022-12-11T07:08:43.716Z,84.46
2022-12-11T07:11:13.546Z,84.21
2022-12-11T07:13:42.255Z,84.59
2022-12-11T07:16:11.305Z,84.22
2022-12-11T07:18:38.736Z,84.65
2022-12-11T07:21:06.195Z,83.79
2022-12-11T07:23:34.416Z,84.61
2022-12-11T07:26:05.895Z,84.53
2022-12-11T07:28:34.392Z,84.09
2022-12-11T07:31:05.242Z,84.14
2022-12-11T07:33:31.843Z,83.90
2022-12-11T07:36:01.412Z,83.85
2022-12-11T07:38:28.409Z,83.99
2022-12-11T07:40:55.048Z,84.09
2022-12-11T07:43:23.022Z,84.44
2022-12-11T07:45:51.211Z,84.26
2022-12-11T07:48:17.985Z,83.77
2022-12-11T07:50:44.675Z,84.23
2022-12-11T07:53:11.282Z,83.91
2022-12-11T07:55:38.197Z,83.81
2022-12-11T07:58:06.319Z,83.81
2022-12-11T08:00:33.078Z,83.90
2022-12-11T08:03:01.298Z,83.68
2022-12-11T08:05:27.979Z,83.64
2022-12-11T08:07:54.833Z,83.79
2022-12-11T08:10:22.946Z,84.02
2022-12-11T08:12:49.581Z,84.06
2022-12-11T08:15:16.306Z,84.21
2022-12-11T08:17:42.986Z,84.07
2022-12-11T08:20:11.318Z,83.68
2022-12-11T08:22:38.050Z,83.93
2022-12-11T08:25:05.624Z,84.16
2022-12-11T08:27:32.268Z,83.73
2022-12-11T08:29:58.888Z,83.94
2022-12-11T08:32:25.622Z,83.77
2022-12-11T08:34:52.680Z,84.26
2022-12-11T08:37:20.797Z,83.95
2022-12-11T08:39:47.446Z,83.86
2022-12-11T08:42:14.086Z,83.80
2022-12-11T08:44:41.314Z,83.83
2022-12-11T08:47:09.868Z,83.66
2022-12-11T08:49:36.719Z,84.18
2022-12-11T08:52:04.561Z,83.80
2022-12-11T08:54:32.677Z,83.77
2022-12-11T08:56:59.495Z,83.91
2022-12-11T08:59:26.170Z,84.01
2022-12-11T09:01:54.207Z,83.81
2022-12-11T09:04:21.023Z,84.05
2022-12-11T09:06:47.808Z,83.81
2022-12-11T09:09:14.860Z,84.09
2022-12-11T09:11:43.086Z,83.53
2022-12-11T09:14:10.148Z,83.43
2022-12-11T09:16:40.221Z,83.54
2022-12-11T09:19:08.637Z,83.30
2022-12-11T09:21:35.290Z,83.71
2022-12-11T09:24:02.339Z,83.38
2022-12-11T09:26:30.282Z,83.34
2022-12-11T09:28:58.857Z,83.18
2022-12-11T09:31:28.301Z,83.32
2022-12-11T09:33:56.891Z,83.84
2022-12-11T09:36:24.445Z,83.75
2022-12-11T09:38:52.238Z,83.40
2022-12-11T09:41:40.841Z,83.31
2022-12-11T09:44:23.594Z,83.46
2022-12-11T09:46:51.732Z,83.28
2022-12-11T09:49:33.302Z,83.78
2022-12-11T09:52:11.740Z,83.55
2022-12-11T09:54:43.987Z,83.24
2022-12-11T09:57:18.644Z,83.65
2022-12-11T10:00:05.675Z,83.59
2022-12-11T10:02:46.756Z,83.05
2022-12-11T10:05:21.545Z,83.16
2022-12-11T10:07:52.811Z,83.35
2022-12-11T10:10:33.347Z,82.99
2022-12-11T10:13:06.753Z,83.27
2022-12-11T10:15:40.409Z,83.26
2022-12-11T10:18:14.458Z,83.63
2022-12-11T10:20:42.876Z,83.07
2022-12-11T10:23:17.084Z,82.93
2022-12-11T10:25:49.416Z,83.43
2022-12-11T10:28:18.886Z,82.93
2022-12-11T10:30:51.998Z,83.36
2022-12-11T10:33:22.534Z,83.26
2022-12-11T10:35:51.883Z,82.90
2022-12-11T10:38:23.809Z,83.26
2022-12-11T10:40:52.710Z,83.30
2022-12-11T10:43:19.484Z,83.10
2022-12-11T10:45:55.332Z,82.84
2022-12-11T10:48:23.113Z,82.73
2022-12-11T10:51:00.079Z,82.74
2022-12-11T10:53:28.132Z,83.23
2022-12-11T10:55:58.006Z,83.25
2022-12-11T10:58:28.511Z,82.85
2022-12-11T11:01:06.412Z,83.20
2022-12-11T11:03:35.563Z,82.91
2022-12-11T11:06:07.210Z,83.23
2022-12-11T11:08:42.532Z,83.06
2022-12-11T11:11:22.102Z,82.95
2022-12-11T11:13:49.551Z,82.69
2022-12-11T11:16:21.032Z,82.69
2022-12-11T11:18:54.132Z,82.95
2022-12-11T11:21:23.217Z,82.95
2022-12-11T11:23:53.702Z,82.76
2022-12-11T11:26:22.944Z,82.69
2022-12-11T11:28:53.087Z,82.65
2022-12-11T11:31:30.804Z,82.81
2022-12-11T11:34:03.189Z,82.88
2022-12-11T11:36:32.868Z,82.61
2022-12-11T11:39:20.470Z,82.75
2022-12-11T11:41:53.993Z,82.81
2022-12-11T11:44:27.341Z,82.64
2022-12-11T11:47:01.150Z,82.42
2022-12-11T11:49:41.908Z,82.80
2022-12-11T11:52:16.266Z,82.85
2022-12-11T11:54:51.221Z,82.97
2022-12-11T11:57:27.354Z,82.68
2022-12-11T11:59:58.434Z,82.63
2022-12-11T12:02:26.641Z,82.82
2022-12-11T12:04:53.425Z,82.58
2022-12-11T12:07:38.102Z,82.96
2022-12-11T12:10:15.087Z,82.87
2022-12-11T12:12:50.354Z,82.74
2022-12-11T12:15:33.721Z,82.72
2022-12-11T12:18:11.990Z,82.76
2022-12-11T12:20:47.387Z,82.97
2022-12-11T12:23:36.334Z,82.78
2022-12-11T12:26:11.321Z,82.64
2022-12-11T12:28:49.128Z,82.75
2022-12-11T12:31:30.297Z,82.67
2022-12-11T12:34:10.154Z,82.77
2022-12-11T12:36:46.123Z,82.81
2022-12-11T12:39:19.740Z,82.70
2022-12-11T12:41:55.438Z,82.86
2022-12-11T12:44:24.698Z,82.92
2022-12-11T12:46:59.881Z,82.31
2022-12-11T12:49:35.622Z,82.87
2022-12-11T12:52:04.959Z,82.84
2022-12-11T12:54:33.883Z,82.29
2022-12-11T12:57:04.126Z,82.54
2022-12-11T12:59:32.508Z,82.32
2022-12-11T13:02:03.455Z,82.64
2022-12-11T13:04:55.970Z,82.42
2022-12-11T13:07:28.670Z,82.83
2022-12-11T13:10:03.393Z,82.28
2022-12-11T13:12:33.969Z,82.52
2022-12-11T13:15:02.047Z,82.41
2022-12-11T13:17:37.614Z,82.62
2022-12-11T13:20:16.433Z,82.11
2022-12-11T13:22:54.990Z,82.43
2022-12-11T13:25:26.806Z,82.66
2022-12-11T13:28:04.045Z,82.68
2022-12-11T13:30:31.954Z,82.42
2022-12-11T13:33:04.774Z,82.31
2022-12-11T13:35:35.351Z,82.38
2022-12-11T13:38:06.276Z,82.60
2022-12-11T13:40:38.291Z,82.46
2022-12-11T13:43:09.710Z,82.21
2022-12-11T13:45:43.626Z,82.23
2022-12-11T13:48:18.884Z,82.55
2022-12-11T13:50:48.329Z,82.16
2022-12-11T13:53:16.075Z,82.23
2022-12-11T13:55:42.760Z,82.29
2022-12-11T13:58:17.050Z,82.57
2022-12-11T14:01:00.140Z,82.57
2022-12-11T14:03:27.435Z,82.31
2022-12-11T14:05:55.532Z,82.46
2022-12-11T14:08:26.410Z,82.56
2022-12-11T14:10:54.394Z,82.42
2022-12-11T14:13:24.163Z,82.16
2022-12-11T14:15:53.580Z,82.53
2022-12-11T14:18:23.310Z,82.42
2022-12-11T14:20:56.354Z,82.24
2022-12-11T14:23:25.356Z,82.46
2022-12-11T14:25:54.368Z,82.51
2022-12-11T14:28:21.997Z,81.94
2022-12-11T14:30:51.067Z,82.29
2022-12-11T14:33:21.768Z,82.54
2022-12-11T14:35:50.189Z,82.07
2022-12-11T14:38:20.972Z,82.05
2022-12-11T14:40:51.714Z,82.15
2022-12-11T14:43:23.405Z,82.35
2022-12-11T14:45:55.461Z,82.22
2022-12-11T14:48:25.187Z,81.98
2022-12-11T14:50:53.746Z,82.52
2022-12-11T14:53:25.596Z,82.00
2022-12-11T14:55:54.004Z,82.37
2022-12-11T14:58:22.875Z,82.42
2022-12-11T15:00:59.271Z,82.54
2022-12-11T15:03:32.181Z,82.39
2022-12-11T15:05:59.339Z,82.55
2022-12-11T15:08:29.382Z,82.01
2022-12-11T15:11:02.121Z,82.58
2022-12-11T15:13:29.088Z,82.59
2022-12-11T15:15:58.829Z,82.64
2022-12-11T15:18:29.825Z,82.22
2022-12-11T15:21:01.105Z,82.59
2022-12-11T15:23:29.899Z,82.23
2022-12-11T15:25:59.382Z,82.51
2022-12-11T15:28:29.186Z,82.43
2022-12-11T15:30:58.597Z,82.57
2022-12-11T15:33:28.471Z,82.56
2022-12-11T15:36:02.103Z,82.56
2022-12-11T15:38:35.026Z,82.20
2022-12-11T15:41:03.121Z,82.64
2022-12-11T15:43:34.708Z,82.37
2022-12-11T15:46:01.750Z,82.10
2022-12-11T15:48:28.597Z,82.36
2022-12-11T15:50:55.497Z,82.35
2022-12-11T15:53:22.652Z,81.98
2022-12-11T15:55:51.347Z,82.52
2022-12-11T15:58:23.229Z,82.26
2022-12-11T16:00:53.095Z,81.97
2022-12-11T16:03:23.256Z,82.12
2022-12-11T16:05:51.904Z,82.11
2022-12-11T16:08:20.968Z,82.47
2022-12-11T16:10:48.402Z,82.16
2022-12-11T16:13:16.826Z,82.29
2022-12-11T16:15:46.561Z,82.07
2022-12-11T16:18:15.558Z,82.30
2022-12-11T16:20:43.745Z,82.12
2022-12-11T16:23:11.686Z,82.33
2022-12-11T16:25:39.654Z,82.14
2022-12-11T16:28:07.230Z,81.96
2022-12-11T16:30:37.131Z,81.95
2022-12-11T16:33:11.823Z,82.39
2022-12-11T16:35:39.771Z,82.15
2022-12-11T16:38:07.766Z,82.38
2022-12-11T16:40:34.485Z,82.14
2022-12-11T16:43:01.401Z,82.13
2022-12-11T16:45:28.249Z,81.80
2022-12-11T16:48:11.198Z,81.95
2022-12-11T16:50:40.374Z,81.98
2022-12-11T16:53:07.277Z,81.87
2022-12-11T16:55:33.956Z,82.35
2022-12-11T16:58:01.327Z,82.01
2022-12-11T17:00:28.196Z,82.03
2022-12-11T17:02:54.881Z,82.06
2022-12-11T17:05:23.198Z,81.93
2022-12-11T17:07:49.922Z,82.48
2022-12-11T17:10:16.756Z,81.82
2022-12-11T17:12:43.428Z,82.05
2022-12-11T17:15:10.789Z,81.96
2022-12-11T17:17:38.030Z,82.17
2022-12-11T17:20:05.739Z,81.88
2022-12-11T17:22:34.992Z,82.10
2022-12-11T17:25:01.727Z,82.15
2022-12-11T17:27:28.572Z,82.23
2022-12-11T17:29:55.342Z,82.09
2022-12-11T17:32:22.072Z,82.09
2022-12-11T17:34:50.499Z,81.92
2022-12-11T17:37:17.332Z,82.23
2022-12-11T17:39:47.625Z,82.13
2022-12-11T17:42:14.327Z,82.34
2022-12-11T17:44:41.147Z,82.15
2022-12-11T17:47:11.270Z,81.90
2022-12-11T17:49:38.258Z,82.03
2022-12-11T17:52:05.253Z,82.23
2022-12-11T17:54:32.131Z,82.19
2022-12-11T17:57:00.209Z,81.90
2022-12-11T17:59:26.953Z,81.76
2022-12-11T18:01:53.779Z,81.76
2022-12-11T18:04:20.618Z,82.18
2022-12-11T18:06:47.504Z,81.74
2022-12-11T18:09:14.222Z,81.91
2022-12-11T18:11:41.241Z,81.92
2022-12-11T18:14:15.262Z,81.88
2022-12-11T18:16:43.680Z,82.10
2022-12-11T18:19:11.515Z,81.98
2022-12-11T18:21:41.318Z,81.90
2022-12-11T18:24:09.289Z,81.76
2022-12-11T18:26:37.612Z,81.83
2022-12-11T18:29:05.644Z,82.01
2022-12-11T18:31:37.497Z,81.83
2022-12-11T18:34:07.809Z,82.08
2022-12-11T18:36:34.577Z,82.03
2022-12-11T18:39:01.577Z,81.76
2022-12-11T18:41:28.285Z,81.85
2022-12-11T18:43:55.463Z,81.94
2022-12-11T18:46:22.337Z,81.62
2022-12-11T18:48:50.806Z,81.36
2022-12-11T18:51:32.542Z,81.88
2022-12-11T18:53:59.336Z,81.66
2022-12-11T18:56:26.046Z,81.77
2022-12-11T18:58:52.890Z,81.30
2022-12-11T19:01:22.204Z,81.32
2022-12-11T19:03:51.421Z,81.63
2022-12-11T19:06:21.490Z,81.93
2022-12-11T19:08:48.399Z,81.57
2022-12-11T19:11:16.327Z,81.49
2022-12-11T19:13:44.076Z,81.21
2022-12-11T19:16:15.792Z,81.41
2022-12-11T19:18:42.566Z,81.37
2022-12-11T19:21:12.615Z,81.24
2022-12-11T19:23:40.278Z,81.36
2022-12-11T19:26:10.868Z,81.49
2022-12-11T19:28:37.689Z,81.52
2022-12-11T19:31:08.131Z,81.43
2022-12-11T19:33:34.894Z,81.33
2022-12-11T19:36:02.610Z,81.86
2022-12-11T19:38:30.660Z,81.44
2022-12-11T19:40:57.356Z,81.45
2022-12-11T19:43:24.211Z,81.68
2022-12-11T19:45:50.917Z,81.08
2022-12-11T19:48:17.851Z,81.59
2022-12-11T19:50:44.566Z,81.40
2022-12-11T19:53:11.588Z,81.23
2022-12-11T19:55:39.725Z,81.38
2022-12-11T19:58:16.910Z,81.54
2022-12-11T20:00:44.028Z,81.11
2022-12-11T20:03:10.783Z,81.28
2022-12-11T20:05:38.215Z,81.37
2022-12-11T20:08:35.301Z,81.50
2022-12-11T20:10:53.106Z,81.41
2022-12-11T20:13:21.411Z,81.25
2022-12-11T20:15:48.699Z,81.23
2022-12-11T20:18:18.551Z,81.29
2022-12-11T20:20:45.587Z,80.97
2022-12-11T20:23:12.853Z,81.14
2022-12-11T20:25:41.069Z,81.09
2022-12-11T20:28:09.436Z,80.92
2022-12-11T20:30:36.124Z,81.32
2022-12-11T20:33:02.904Z,81.21
2022-12-11T20:35:29.642Z,81.11
2022-12-11T20:37:56.432Z,80.73
2022-12-11T20:40:24.069Z,81.20
2022-12-11T20:42:50.993Z,81.13
2022-12-11T20:45:19.442Z,81.15
2022-12-11T20:47:46.242Z,80.84
2022-12-11T20:50:13.044Z,80.85
2022-12-11T20:52:39.825Z,81.05
2022-12-11T20:55:07.785Z,81.23
2022-12-11T20:57:34.551Z,81.33
2022-12-11T21:00:01.342Z,81.29
2022-12-11T21:02:31.043Z,81.32
2022-12-11T21:04:58.019Z,80.96
2022-12-11T21:07:25.794Z,80.97
2022-12-11T21:09:52.508Z,81.12
2022-12-11T21:12:19.397Z,81.01
2022-12-11T21:14:46.263Z,81.06
2022-12-11T21:17:12.987Z,81.09
2022-12-11T21:19:41.108Z,81.22
2022-12-11T21:22:07.823Z,80.66
2022-12-11T21:24:34.556Z,80.93
2022-12-11T21:27:01.402Z,80.85
2022-12-11T21:29:29.423Z,81.09
2022-12-11T21:31:56.486Z,80.96
2022-12-11T21:34:25.501Z,81.14
2022-12-11T21:36:56.580Z,80.89
2022-12-11T21:39:23.721Z,80.77
2022-12-11T21:41:50.436Z,80.61
2022-12-11T21:47:04.306Z,80.94
2022-12-11T21:49:31.341Z,80.72
2022-12-11T21:51:59.402Z,81.26
2022-12-11T21:54:26.137Z,81.31
2022-12-11T21:56:54.249Z,80.92
2022-12-11T21:59:21.081Z,81.25
2022-12-11T22:01:47.800Z,80.91
2022-12-11T22:04:15.967Z,80.64
2022-12-11T22:06:43.643Z,80.93
2022-12-11T22:09:12.960Z,81.00
2022-12-11T22:11:41.471Z,80.76
2022-12-11T22:14:11.668Z,80.91
2022-12-11T22:16:38.418Z,81.05
2022-12-11T22:19:05.389Z,80.69
2022-12-11T22:21:32.173Z,80.75
2022-12-11T22:23:59.849Z,81.13
2022-12-11T22:26:33.439Z,80.84
2022-12-11T22:29:00.259Z,81.02
2022-12-11T22:31:27.496Z,80.93
2022-12-11T22:33:55.099Z,81.05
2022-12-11T22:36:22.366Z,80.95
2022-12-11T22:38:49.078Z,80.88
2022-12-11T22:41:22.290Z,80.61
2022-12-11T22:43:50.779Z,80.82
2022-12-11T22:46:18.559Z,80.71
2022-12-11T22:48:45.337Z,80.86
2022-12-11T22:51:12.742Z,80.58
2022-12-11T22:53:39.514Z,80.63
2022-12-11T22:56:07.200Z,81.06
2022-12-11T22:58:34.285Z,80.63
2022-12-11T23:01:03.780Z,80.85
2022-12-11T23:03:30.491Z,80.95
2022-12-11T23:06:00.775Z,80.93
2022-12-11T23:08:30.100Z,80.60
2022-12-11T23:10:56.865Z,80.67
2022-12-11T23:13:26.671Z,80.86
2022-12-11T23:15:53.373Z,80.91
2022-12-11T23:18:21.384Z,80.57
2022-12-11T23:20:48.976Z,80.66
2022-12-11T23:23:15.652Z,80.67
2022-12-11T23:25:42.272Z,80.69
2022-12-11T23:28:09.056Z,80.52
2022-12-11T23:30:35.715Z,80.64
2022-12-11T23:33:02.388Z,80.52
2022-12-11T23:35:30.458Z,80.61
2022-12-11T23:37:57.094Z,80.83
2022-12-11T23:40:23.854Z,80.60
2022-12-11T23:43:46.777Z,80.76
2022-12-11T23:46:16.160Z,80.54
2022-12-11T23:48:42.977Z,80.56
2022-12-11T23:51:14.132Z,80.34
2022-12-11T23:53:41.668Z,80.42
2022-12-11T23:56:11.569Z,80.14
2022-12-11T23:58:39.102Z,80.55
